createdAt,value
2023-03-21T00:00:43.334Z,89.92
2023-03-21T00:03:11.233Z,89.95
2023-03-21T00:05:42.531Z,89.85
2023-03-21T00:08:18.544Z,90.03
2023-03-21T00:10:45.356Z,90.07
2023-03-21T00:13:13.574Z,90.05
2023-03-21T00:16:04.809Z,90.05
2023-03-21T00:18:36.958Z,89.89
2023-03-21T00:21:37.506Z,89.96
2023-03-21T00:23:52.646Z,90.06
2023-03-21T00:26:19.353Z,89.93
2023-03-21T00:28:46.039Z,90.02
2023-03-21T00:31:12.765Z,90.25
2023-03-21T00:33:39.586Z,90.16
2023-03-21T00:36:07.690Z,90.07
2023-03-21T00:38:35.717Z,90.30
2023-03-21T00:41:18.944Z,90.23
2023-03-21T00:43:50.364Z,90.22
2023-03-21T00:46:16.990Z,90.55
2023-03-21T00:48:43.575Z,90.41
2023-03-21T00:51:27.337Z,90.48
2023-03-21T00:53:58.814Z,90.94
2023-03-21T00:56:25.623Z,90.80
2023-03-21T00:58:52.432Z,90.76
2023-03-21T01:01:19.042Z,90.82
2023-03-21T01:03:48.251Z,90.97
2023-03-21T01:06:19.437Z,90.81
2023-03-21T01:08:52.666Z,90.92
2023-03-21T01:11:26.462Z,90.90
2023-03-21T01:14:04.031Z,90.91
2023-03-21T01:16:34.724Z,90.88
2023-03-21T01:19:05.008Z,90.73
2023-03-21T01:21:33.678Z,90.90
2023-03-21T01:24:01.894Z,90.58
2023-03-21T01:26:28.859Z,90.59
2023-03-21T01:28:55.544Z,90.78
2023-03-21T01:31:22.244Z,90.82
2023-03-21T01:33:48.844Z,90.72
2023-03-21T01:36:21.826Z,90.91
2023-03-21T01:38:49.843Z,90.85
2023-03-21T01:41:44.525Z,90.63
2023-03-21T01:44:17.839Z,90.51
2023-03-21T01:47:11.647Z,90.71
2023-03-21T01:49:46.586Z,90.83
2023-03-21T01:52:35.450Z,90.66
2023-03-21T01:55:04.661Z,90.85
2023-03-21T01:57:47.260Z,90.77
2023-03-21T02:00:25.114Z,90.84
2023-03-21T02:02:52.549Z,90.84
2023-03-21T02:05:29.535Z,90.79
2023-03-21T02:07:56.956Z,90.80
2023-03-21T02:10:23.900Z,91.01
2023-03-21T02:12:50.514Z,91.03
2023-03-21T02:15:17.328Z,90.78
2023-03-21T02:17:57.734Z,90.97
2023-03-21T02:20:30.370Z,90.84
2023-03-21T02:23:16.271Z,90.79
2023-03-21T02:26:17.516Z,90.84
2023-03-21T02:28:56.171Z,90.85
2023-03-21T02:31:26.768Z,90.68
2023-03-21T02:34:09.536Z,90.76
2023-03-21T02:37:17.182Z,90.96
2023-03-21T02:39:55.829Z,90.62
2023-03-21T02:42:28.150Z,90.76
2023-03-21T02:45:18.231Z,90.88
2023-03-21T02:47:47.960Z,90.73
2023-03-21T02:50:26.759Z,90.98
2023-03-21T02:52:55.313Z,90.86
2023-03-21T02:55:27.165Z,90.84
2023-03-21T02:57:56.564Z,90.87
2023-03-21T03:00:27.455Z,90.72
2023-03-21T03:03:08.336Z,90.89
2023-03-21T03:05:42.156Z,90.81
2023-03-21T03:08:38.596Z,90.70
2023-03-21T03:11:22.854Z,90.70
2023-03-21T03:14:59.890Z,90.83
2023-03-21T03:17:23.064Z,90.71
2023-03-21T03:20:16.247Z,90.61
2023-03-21T03:22:58.165Z,90.63
2023-03-21T03:25:42.507Z,90.66
2023-03-21T03:28:11.623Z,90.62
2023-03-21T03:30:45.047Z,90.98
2023-03-21T03:33:17.959Z,90.97
2023-03-21T03:35:55.811Z,90.66
2023-03-21T03:38:31.106Z,90.87
2023-03-21T03:41:11.565Z,90.88
2023-03-21T03:43:47.041Z,90.87
2023-03-21T03:46:40.365Z,90.92
2023-03-21T03:49:13.664Z,90.84
2023-03-21T03:51:50.569Z,90.99
2023-03-21T03:54:23.761Z,90.94
2023-03-21T03:56:50.971Z,91.06
2023-03-21T03:59:25.219Z,90.85
2023-03-21T04:01:52.066Z,90.92
2023-03-21T04:04:18.726Z,91.09
2023-03-21T04:06:51.699Z,91.13
2023-03-21T04:09:24.964Z,90.99
2023-03-21T04:11:56.293Z,91.16
2023-03-21T04:14:25.552Z,90.85
2023-03-21T04:16:54.676Z,90.94
2023-03-21T04:19:21.780Z,91.08
2023-03-21T04:21:48.633Z,91.11
2023-03-21T04:24:15.388Z,91.17
2023-03-21T04:26:42.376Z,91.18
2023-03-21T04:29:09.014Z,91.25
2023-03-21T04:31:36.171Z,91.26
2023-03-21T04:34:06.088Z,91.06
2023-03-21T04:36:38.727Z,91.13
2023-03-21T04:39:12.549Z,91.18
2023-03-21T04:41:40.809Z,91.02
2023-03-21T04:44:08.111Z,91.38
2023-03-21T04:46:36.483Z,91.41
2023-03-21T04:49:03.703Z,91.43
2023-03-21T04:51:30.980Z,91.35
2023-03-21T04:53:57.856Z,91.25
2023-03-21T04:56:32.382Z,91.34
2023-03-21T04:59:01.010Z,91.41
2023-03-21T05:01:30.871Z,91.55
2023-03-21T05:03:59.462Z,91.43
2023-03-21T05:06:27.888Z,91.62
2023-03-21T05:09:00.292Z,91.63
2023-03-21T05:11:28.320Z,91.49
2023-03-21T05:13:54.920Z,91.71
2023-03-21T05:16:25.611Z,91.73
2023-03-21T05:18:55.642Z,91.94
2023-03-21T05:21:23.585Z,91.86
2023-03-21T05:23:58.536Z,91.85
2023-03-21T05:26:25.518Z,91.80
2023-03-21T05:28:52.627Z,91.60
2023-03-21T05:31:19.374Z,91.73
2023-03-21T05:33:46.449Z,91.74
2023-03-21T05:36:13.967Z,91.77
2023-03-21T05:38:45.814Z,91.43
2023-03-21T05:41:18.811Z,91.65
2023-03-21T05:43:46.043Z,91.67
2023-03-21T05:46:12.837Z,91.48
2023-03-21T05:48:40.548Z,91.57
2023-03-21T05:51:07.278Z,91.51
2023-03-21T05:53:33.945Z,91.67
2023-03-21T05:56:00.963Z,91.64
2023-03-21T05:58:27.668Z,91.64
2023-03-21T06:00:54.661Z,91.57
2023-03-21T06:03:21.974Z,91.51
2023-03-21T06:05:48.588Z,91.50
2023-03-21T06:08:16.790Z,91.43
2023-03-21T06:10:43.427Z,91.37
2023-03-21T06:13:10.002Z,91.49
2023-03-21T06:15:37.107Z,91.20
2023-03-21T06:18:04.512Z,91.07
2023-03-21T06:20:31.305Z,91.27
2023-03-21T06:22:57.885Z,91.17
2023-03-21T06:25:24.572Z,91.07
2023-03-21T06:27:51.273Z,91.30
2023-03-21T06:30:18.495Z,91.34
2023-03-21T06:32:45.079Z,91.33
2023-03-21T06:35:11.939Z,91.01
2023-03-21T06:37:38.673Z,90.96
2023-03-21T06:40:07.508Z,91.18
2023-03-21T06:42:35.833Z,90.96
2023-03-21T06:45:02.560Z,91.16
2023-03-21T06:47:29.159Z,91.29
2023-03-21T06:49:57.830Z,91.54
2023-03-21T06:52:25.461Z,91.43
2023-03-21T06:54:52.048Z,91.66
2023-03-21T06:57:21.042Z,91.55
2023-03-21T06:59:47.970Z,91.56
2023-03-21T07:02:14.807Z,91.57
2023-03-21T07:04:41.638Z,91.71
2023-03-21T07:07:08.185Z,91.90
2023-03-21T07:09:35.555Z,91.90
2023-03-21T07:12:02.177Z,91.94
2023-03-21T07:14:30.026Z,92.23
2023-03-21T07:16:57.474Z,91.40
2023-03-21T07:19:24.022Z,91.42
2023-03-21T07:21:50.642Z,90.96
2023-03-21T07:24:17.280Z,90.90
2023-03-21T07:26:43.852Z,90.71
2023-03-21T07:29:10.618Z,90.90
2023-03-21T07:31:40.064Z,90.50
2023-03-21T07:34:06.846Z,90.70
2023-03-21T07:36:33.605Z,90.37
2023-03-21T07:39:00.280Z,90.39
2023-03-21T07:41:26.882Z,90.32
2023-03-21T07:43:53.482Z,90.56
2023-03-21T07:46:20.399Z,90.61
2023-03-21T07:48:47.557Z,90.66
2023-03-21T07:51:14.240Z,90.36
2023-03-21T07:53:42.122Z,90.50
2023-03-21T07:56:09.172Z,90.43
2023-03-21T07:58:35.997Z,90.26
2023-03-21T08:01:02.618Z,90.20
2023-03-21T08:03:29.294Z,90.29
2023-03-21T08:05:56.232Z,90.23
2023-03-21T08:08:22.870Z,90.22
2023-03-21T08:10:49.437Z,89.86
2023-03-21T08:13:16.143Z,90.05
2023-03-21T08:15:42.918Z,89.90
2023-03-21T08:18:10.399Z,89.63
2023-03-21T08:20:37.108Z,89.28
2023-03-21T08:23:03.937Z,89.30
2023-03-21T08:25:30.945Z,89.28
2023-03-21T08:27:57.473Z,88.87
2023-03-21T08:30:26.476Z,88.83
2023-03-21T08:33:00.648Z,88.71
2023-03-21T08:35:28.051Z,88.74
2023-03-21T08:37:54.616Z,88.46
2023-03-21T08:40:21.400Z,88.22
2023-03-21T08:42:48.421Z,88.15
2023-03-21T08:45:17.132Z,88.43
2023-03-21T08:47:56.850Z,88.05
2023-03-21T08:50:28.084Z,88.29
2023-03-21T08:52:57.799Z,88.51
2023-03-21T08:55:35.897Z,88.33
2023-03-21T08:58:03.123Z,88.30
2023-03-21T09:00:30.453Z,88.00
2023-03-21T09:02:58.983Z,88.22
2023-03-21T09:05:26.730Z,88.21
2023-03-21T09:07:54.624Z,87.86
2023-03-21T09:10:23.239Z,87.60
2023-03-21T09:12:52.659Z,87.21
2023-03-21T09:15:22.135Z,86.63
2023-03-21T09:17:53.155Z,85.93
2023-03-21T09:20:22.781Z,85.84
2023-03-21T09:22:52.261Z,85.09
2023-03-21T09:25:20.676Z,84.51
2023-03-21T09:27:48.101Z,84.19
2023-03-21T09:30:17.462Z,84.15
2023-03-21T09:32:47.433Z,84.22
2023-03-21T09:35:16.245Z,83.94
2023-03-21T09:37:43.076Z,83.65
2023-03-21T09:40:19.803Z,82.86
2023-03-21T09:43:05.999Z,81.83
2023-03-21T09:46:08.666Z,81.17
2023-03-21T09:48:57.909Z,80.63
2023-03-21T09:51:49.428Z,80.34
2023-03-21T09:54:38.247Z,80.04
2023-03-21T09:57:30.409Z,80.17
2023-03-21T10:00:00.496Z,80.98
2023-03-21T10:02:41.672Z,81.00
2023-03-21T10:05:17.804Z,81.58
2023-03-21T10:08:09.201Z,81.86
2023-03-21T10:10:41.687Z,81.96
2023-03-21T10:13:27.060Z,81.62
2023-03-21T10:16:00.279Z,82.04
2023-03-21T10:18:31.157Z,82.03
2023-03-21T10:20:58.271Z,82.09
2023-03-21T10:23:29.647Z,81.88
2023-03-21T10:26:00.099Z,82.05
2023-03-21T10:28:49.913Z,82.05
2023-03-21T10:31:25.539Z,81.89
2023-03-21T10:33:56.012Z,82.21
2023-03-21T10:36:30.291Z,82.37
2023-03-21T10:39:04.415Z,83.10
2023-03-21T10:41:32.531Z,83.32
2023-03-21T10:44:17.324Z,83.37
2023-03-21T10:47:10.761Z,84.07
2023-03-21T10:50:13.070Z,84.38
2023-03-21T10:52:30.494Z,84.63
2023-03-21T10:55:17.828Z,84.84
2023-03-21T10:57:47.417Z,85.07
2023-03-21T11:00:27.503Z,85.14
2023-03-21T11:02:54.525Z,85.00
2023-03-21T11:05:42.492Z,85.00
2023-03-21T11:08:18.864Z,84.58
2023-03-21T11:10:59.905Z,84.09
2023-03-21T11:13:48.175Z,83.93
2023-03-21T11:16:30.486Z,83.40
2023-03-21T11:19:02.084Z,82.87
2023-03-21T11:21:36.585Z,82.40
2023-03-21T11:24:03.905Z,82.21
2023-03-21T11:26:36.832Z,81.60
2023-03-21T11:29:25.409Z,81.52
2023-03-21T11:31:52.405Z,81.25
2023-03-21T11:34:29.086Z,81.03
2023-03-21T11:37:00.157Z,80.92
2023-03-21T11:39:41.184Z,81.03
2023-03-21T11:42:27.606Z,80.21
2023-03-21T11:45:23.621Z,79.75
2023-03-21T11:47:53.567Z,79.16
2023-03-21T11:50:37.340Z,78.64
2023-03-21T11:53:04.104Z,77.97
2023-03-21T11:55:54.974Z,77.25
2023-03-21T11:58:36.996Z,76.90
2023-03-21T12:01:26.531Z,76.80
2023-03-21T12:04:18.680Z,76.72
2023-03-21T12:06:58.822Z,76.27
2023-03-21T12:09:37.749Z,76.26
2023-03-21T12:12:22.209Z,75.91
2023-03-21T12:15:24.874Z,75.53
2023-03-21T12:18:08.751Z,76.06
2023-03-21T12:20:44.472Z,76.19
2023-03-21T12:23:23.172Z,76.54
2023-03-21T12:26:07.923Z,76.43
2023-03-21T12:28:43.348Z,77.51
2023-03-21T12:31:31.836Z,77.78
2023-03-21T12:34:10.333Z,77.78
2023-03-21T12:37:09.107Z,78.33
2023-03-21T12:39:38.988Z,78.31
2023-03-21T12:42:14.246Z,78.25
2023-03-21T12:44:54.413Z,78.55
2023-03-21T12:47:24.113Z,78.41
2023-03-21T12:50:17.058Z,78.54
2023-03-21T12:52:47.426Z,78.36
2023-03-21T12:55:21.213Z,78.44
2023-03-21T12:57:57.564Z,78.35
2023-03-21T13:00:38.065Z,78.65
2023-03-21T13:03:10.971Z,78.69
2023-03-21T13:05:46.879Z,79.17
2023-03-21T13:08:28.637Z,79.45
2023-03-21T13:11:00.238Z,79.54
2023-03-21T13:13:46.068Z,79.84
2023-03-21T13:16:31.228Z,79.45
2023-03-21T13:19:00.560Z,79.47
2023-03-21T13:21:52.295Z,79.66
2023-03-21T13:24:50.590Z,80.00
2023-03-21T13:27:26.674Z,79.71
2023-03-21T13:30:00.579Z,79.47
2023-03-21T13:32:49.265Z,79.36
2023-03-21T13:35:18.385Z,79.78
2023-03-21T13:37:59.792Z,79.36
2023-03-21T13:40:37.442Z,79.36
2023-03-21T13:43:04.568Z,79.66
2023-03-21T13:45:34.729Z,79.87
2023-03-21T13:48:06.174Z,79.91
2023-03-21T13:50:41.890Z,80.02
2023-03-21T13:53:14.582Z,80.43
2023-03-21T13:55:44.782Z,80.29
2023-03-21T13:58:33.217Z,80.27
2023-03-21T14:01:12.794Z,80.61
2023-03-21T14:03:40.198Z,80.54
2023-03-21T14:06:11.922Z,80.20
2023-03-21T14:08:46.890Z,79.66
2023-03-21T14:11:19.872Z,80.19
2023-03-21T14:13:51.266Z,80.24
2023-03-21T14:16:22.032Z,80.29
2023-03-21T14:18:55.809Z,80.25
2023-03-21T14:21:29.850Z,79.58
2023-03-21T14:24:05.082Z,79.17
2023-03-21T14:26:40.854Z,79.20
2023-03-21T14:29:24.747Z,79.18
2023-03-21T14:31:53.454Z,78.97
2023-03-21T14:34:20.562Z,78.77
2023-03-21T14:36:56.869Z,79.03
2023-03-21T14:39:30.963Z,79.25
2023-03-21T14:42:09.349Z,79.58
2023-03-21T14:44:56.908Z,79.46
2023-03-21T14:47:29.399Z,79.50
2023-03-21T14:49:58.846Z,79.18
2023-03-21T14:52:31.638Z,79.28
2023-03-21T14:55:00.817Z,79.45
2023-03-21T14:57:31.439Z,79.75
2023-03-21T15:00:02.271Z,79.34
2023-03-21T15:02:36.864Z,79.11
2023-03-21T15:05:22.649Z,79.40
2023-03-21T15:07:58.363Z,78.95
2023-03-21T15:10:27.848Z,78.27
2023-03-21T15:12:57.629Z,78.43
2023-03-21T15:15:27.696Z,78.54
2023-03-21T15:17:56.547Z,78.23
2023-03-21T15:20:26.466Z,78.08
2023-03-21T15:22:58.675Z,78.13
2023-03-21T15:25:33.145Z,78.22
2023-03-21T15:28:00.620Z,78.33
2023-03-21T15:30:29.500Z,78.48
2023-03-21T15:32:57.508Z,78.44
2023-03-21T15:35:34.638Z,78.47
2023-03-21T15:38:01.464Z,78.31
2023-03-21T15:40:33.778Z,78.21
2023-03-21T15:43:06.667Z,78.07
2023-03-21T15:45:33.375Z,78.18
2023-03-21T15:48:03.286Z,78.68
2023-03-21T15:50:42.872Z,78.53
2023-03-21T15:53:17.909Z,78.84
2023-03-21T15:55:50.184Z,79.03
2023-03-21T15:58:42.851Z,79.27
2023-03-21T16:01:18.715Z,79.18
2023-03-21T16:03:48.107Z,79.53
2023-03-21T16:06:14.619Z,79.82
2023-03-21T16:09:12.344Z,80.22
2023-03-21T16:11:44.099Z,80.35
2023-03-21T16:14:11.327Z,80.80
2023-03-21T16:16:38.175Z,80.68
2023-03-21T16:19:07.275Z,81.00
2023-03-21T16:21:35.395Z,81.12
2023-03-21T16:24:02.390Z,81.06
2023-03-21T16:26:32.111Z,81.54
2023-03-21T16:28:59.308Z,81.50
2023-03-21T16:31:32.633Z,81.91
2023-03-21T16:33:59.241Z,81.79
2023-03-21T16:36:44.177Z,82.13
2023-03-21T16:39:17.030Z,82.22
2023-03-21T16:41:43.813Z,82.14
2023-03-21T16:44:10.501Z,81.91
2023-03-21T16:46:37.139Z,82.21
2023-03-21T16:49:04.478Z,82.28
2023-03-21T16:51:34.227Z,82.50
2023-03-21T16:54:00.997Z,82.60
2023-03-21T16:56:33.729Z,82.82
2023-03-21T16:59:00.506Z,82.76
2023-03-21T17:01:27.770Z,82.89
2023-03-21T17:03:54.552Z,83.47
2023-03-21T17:06:24.603Z,83.54
2023-03-21T17:08:51.826Z,83.45
2023-03-21T17:11:21.332Z,83.59
2023-03-21T17:13:49.606Z,83.46
2023-03-21T17:16:19.228Z,83.57
2023-03-21T17:18:45.903Z,83.79
2023-03-21T17:21:18.409Z,83.87
2023-03-21T17:23:45.896Z,84.08
2023-03-21T17:26:14.062Z,84.00
2023-03-21T17:28:41.912Z,84.03
2023-03-21T17:31:17.281Z,84.27
2023-03-21T17:33:44.502Z,84.25
2023-03-21T17:36:20.956Z,84.35
2023-03-21T17:38:47.990Z,84.62
2023-03-21T17:41:17.639Z,84.69
2023-03-21T17:43:44.792Z,84.60
2023-03-21T17:46:17.538Z,84.82
2023-03-21T17:48:46.256Z,84.91
2023-03-21T17:51:17.696Z,85.19
2023-03-21T17:53:46.206Z,84.96
2023-03-21T17:56:34.878Z,85.26
2023-03-21T17:59:04.883Z,85.35
2023-03-21T18:01:32.149Z,85.31
2023-03-21T18:03:59.603Z,85.35
2023-03-21T18:06:26.899Z,85.45
2023-03-21T18:08:54.649Z,85.66
2023-03-21T18:11:23.239Z,85.81
2023-03-21T18:13:50.360Z,85.91
2023-03-21T18:16:23.467Z,86.03
2023-03-21T18:18:53.838Z,86.06
2023-03-21T18:21:22.721Z,86.04
2023-03-21T18:23:49.886Z,85.83
2023-03-21T18:26:23.755Z,86.19
2023-03-21T18:29:36.614Z,86.29
2023-03-21T18:31:37.802Z,86.26
2023-03-21T18:34:04.587Z,86.22
2023-03-21T18:36:31.181Z,86.28
2023-03-21T18:38:58.930Z,86.04
2023-03-21T18:41:26.145Z,86.20
2023-03-21T18:44:05.235Z,85.82
2023-03-21T18:46:47.285Z,85.97
2023-03-21T18:49:58.839Z,86.16
2023-03-21T18:52:02.909Z,85.98
2023-03-21T18:54:30.197Z,86.05
2023-03-21T18:57:33.776Z,86.21
2023-03-21T18:59:44.700Z,86.28
2023-03-21T19:02:12.496Z,86.18
2023-03-21T19:04:39.380Z,86.44
2023-03-21T19:07:08.249Z,86.37
2023-03-21T19:09:58.231Z,86.71
2023-03-21T19:12:23.913Z,86.79
2023-03-21T19:14:50.554Z,86.79
2023-03-21T19:18:15.400Z,86.52
2023-03-21T19:20:05.761Z,86.69
2023-03-21T19:22:32.374Z,86.47
2023-03-21T19:24:59.964Z,86.26
2023-03-21T19:27:27.201Z,86.62
2023-03-21T19:30:10.644Z,86.67
2023-03-21T19:32:40.149Z,86.73
2023-03-21T19:35:07.534Z,86.64
2023-03-21T19:37:36.291Z,86.61
2023-03-21T19:40:06.325Z,86.71
2023-03-21T19:42:33.521Z,86.85
2023-03-21T19:45:00.558Z,86.72
2023-03-21T19:47:27.233Z,86.67
2023-03-21T19:50:40.793Z,86.72
2023-03-21T19:52:43.113Z,86.60
2023-03-21T19:55:10.913Z,86.69
2023-03-21T19:57:37.479Z,86.98
2023-03-21T20:00:05.096Z,86.73
2023-03-21T20:02:36.595Z,86.80
2023-03-21T20:05:07.934Z,86.75
2023-03-21T20:07:35.022Z,86.67
2023-03-21T20:10:06.628Z,86.79
2023-03-21T20:12:33.480Z,86.76
2023-03-21T20:15:12.334Z,86.57
2023-03-21T20:17:43.165Z,86.83
2023-03-21T20:20:13.796Z,86.81
2023-03-21T20:25:28.493Z,86.69
2023-03-21T20:28:12.734Z,86.77
2023-03-21T20:30:54.111Z,86.87
2023-03-21T20:33:21.314Z,87.26
2023-03-21T20:38:37.138Z,87.56
2023-03-21T20:41:06.263Z,87.44
2023-03-21T20:46:22.509Z,87.52
2023-03-21T20:48:49.845Z,87.31
2023-03-21T20:52:29.140Z,87.66
2023-03-21T20:54:04.470Z,87.54
2023-03-21T20:56:31.141Z,87.85
2023-03-21T20:59:12.553Z,87.59
2023-03-21T21:01:43.395Z,87.57
2023-03-21T21:04:10.307Z,87.64
2023-03-21T21:06:37.037Z,87.59
2023-03-21T21:09:04.354Z,87.64
2023-03-21T21:14:18.019Z,87.57
2023-03-21T21:16:45.011Z,87.47
2023-03-21T21:19:11.584Z,87.59
2023-03-21T21:21:38.304Z,87.31
2023-03-21T21:24:07.732Z,87.15
2023-03-21T21:26:35.098Z,87.20
2023-03-21T21:29:02.642Z,87.42
2023-03-21T21:31:29.293Z,87.38
2023-03-21T21:33:55.900Z,87.28
2023-03-21T21:36:22.824Z,87.43
2023-03-21T21:38:49.705Z,87.31
2023-03-21T21:41:20.891Z,87.34
2023-03-21T21:43:47.990Z,87.49
2023-03-21T21:46:14.842Z,87.72
2023-03-21T21:48:41.614Z,87.66
2023-03-21T21:51:08.885Z,87.61
2023-03-21T21:53:36.619Z,87.46
2023-03-21T21:56:06.406Z,87.40
2023-03-21T21:58:34.062Z,87.51
2023-03-21T22:01:04.648Z,87.70
2023-03-21T22:03:40.970Z,87.64
2023-03-21T22:06:10.217Z,87.76
2023-03-21T22:08:37.215Z,88.04
2023-03-21T22:11:05.890Z,88.24
2023-03-21T22:13:32.429Z,88.18
2023-03-21T22:15:59.067Z,88.27
2023-03-21T22:18:26.254Z,88.32
2023-03-21T22:20:52.856Z,88.08
2023-03-21T22:23:19.595Z,88.31
2023-03-21T22:25:52.225Z,88.32
2023-03-21T22:28:22.102Z,88.25
2023-03-21T22:30:49.198Z,88.53
2023-03-21T22:33:16.037Z,88.55
2023-03-21T22:35:42.647Z,88.52
2023-03-21T22:38:09.294Z,88.32
2023-03-21T22:40:36.038Z,88.18
2023-03-21T22:43:02.937Z,88.44
2023-03-21T22:45:29.844Z,88.16
2023-03-21T22:47:56.528Z,88.14
2023-03-21T22:50:23.134Z,88.25
2023-03-21T22:52:49.656Z,88.20
2023-03-21T22:55:16.477Z,88.08
2023-03-21T22:57:43.074Z,88.29
2023-03-21T23:00:13.569Z,88.03
2023-03-21T23:02:42.611Z,88.03
2023-03-21T23:05:10.483Z,87.98
2023-03-21T23:07:37.573Z,88.09
2023-03-21T23:10:06.422Z,88.30
2023-03-21T23:12:33.295Z,88.42
2023-03-21T23:15:01.971Z,88.05
2023-03-21T23:17:28.933Z,88.34
2023-03-21T23:19:55.658Z,88.31
2023-03-21T23:22:22.258Z,88.58
2023-03-21T23:24:49.228Z,88.19
2023-03-21T23:27:18.256Z,88.10
2023-03-21T23:29:47.111Z,88.23
2023-03-21T23:32:13.697Z,88.26
2023-03-21T23:34:40.624Z,88.38
2023-03-21T23:37:07.222Z,88.62
2023-03-21T23:39:34.509Z,88.62
2023-03-21T23:42:01.143Z,88.52
2023-03-21T23:44:27.937Z,88.66
2023-03-21T23:46:55.036Z,88.80
2023-03-21T23:49:21.665Z,88.77
2023-03-21T23:51:48.287Z,88.72
2023-03-21T23:54:15.160Z,88.64
2023-03-21T23:56:42.160Z,88.38
2023-03-21T23:59:09.819Z,88.54
